Lisbon Falls, Maine
Current Conditions -  °F | °C
As of 5:35 AM on Saturday 22 Nov 2014 (Local Time) from KLEW Reporting Station
Few Clouds Few Clouds  
Wind Chill: 13°   Ceiling: Unl
Heat Index: 19°   Visibility: 10mi
Dew Point:   Wind: 5mph
Humidity: 63%   Direction: 170°S
Pressure: 30.3"   Gusts: NA
Location:  44°N, 70.06°W
Report Text: KLEW 221035Z AUTO 17004KT 10SM FEW120 M07/M13 A3030 RMK AO1
Loading
Personal Weather Stations






























Interactive Weather Map New forecast layout! Learn more

10-Day Weather Forecast

Advertisements
Track Severe Weather on mobile